Time;durP1;ratioP1;P1;durP2;ratioP2;P2;SDS_P1;SDS_P2;PMS_P1;PMS_P2;Temp;Humidity;BMP_temperature;BMP_pressure;BME280_temperature;BME280_humidity;BME280_pressure;Samples;Min_cycle;Max_cycle;Signal;HPM_P1;HPM_P2
2023/05/02 00:01:21;;;;;;;;;;;;;;;9.40;80.15;95514.22;5094241;28;1170;-53
2023/05/02 00:03:47;;;;;;;;;;;;;;;9.44;80.35;95511.09;5094126;28;1876;-53
2023/05/02 00:06:13;;;;;;;;;;;;;;;9.55;79.79;95502.91;5094125;28;1065;-53
2023/05/02 00:08:39;;;;;;;;;;;;;;;9.60;79.57;95507.84;5094036;28;956;-53
2023/05/02 00:11:05;;;;;;;;;;;;;;;9.53;80.30;95501.41;5094109;28;1910;-53
2023/05/02 00:13:31;;;;;;;;;;;;;;;9.55;80.09;95500.25;5094059;28;1036;-53
2023/05/02 00:15:57;;;;;;;;;;;;;;;9.58;80.32;95507.97;5094033;28;1001;-53
2023/05/02 00:18:23;;;;;;;;;;;;;;;9.55;80.42;95505.59;5094004;28;1313;-53
2023/05/02 00:20:49;;;;;;;;;;;;;;;9.33;80.02;95508.59;5093829;28;1029;-53
2023/05/02 00:23:15;;;;;;;;;;;;;;;9.25;80.94;95509.34;5093872;28;1885;-53
2023/05/02 00:25:45;;;;;;;;;;;;;;;9.08;81.15;95504.75;5094015;28;969;-53
2023/05/02 00:28:12;;;;;;;;;;;;;;;9.07;81.85;95509.25;5093692;28;1037;-53
2023/05/02 00:30:45;;;;;;;;;;;;;;;9.11;81.80;95515.97;5093823;28;1983;-53
2023/05/02 00:33:12;;;;;;;;;;;;;;;9.25;81.04;95514.66;5093674;28;1045;-53
2023/05/02 00:35:38;;;;;;;;;;;;;;;9.26;80.80;95512.84;5093563;28;1088;-53
2023/05/02 00:38:04;;;;;;;;;;;;;;;9.23;80.38;95516.66;5093681;28;996;-53
2023/05/02 00:40:31;;;;;;;;;;;;;;;9.23;80.35;95519.31;5093908;28;954;-53
2023/05/02 00:42:56;;;;;;;;;;;;;;;8.82;80.94;95525.81;5093487;28;1025;-53
2023/05/02 00:45:23;;;;;;;;;;;;;;;8.73;82.24;95522.19;5093697;28;962;-53
2023/05/02 00:47:49;;;;;;;;;;;;;;;8.89;81.85;95532.28;5093591;28;1035;-53
2023/05/02 00:50:16;;;;;;;;;;;;;;;8.71;81.81;95534.81;5093464;28;1980;-53
2023/05/02 00:52:42;;;;;;;;;;;;;;;8.69;82.23;95526.97;5093415;28;1040;-53
2023/05/02 00:55:08;;;;;;;;;;;;;;;8.57;81.85;95530.72;5093683;28;1044;-53
2023/05/02 00:57:34;;;;;;;;;;;;;;;8.64;81.42;95531.84;5093641;28;1052;-53
2023/05/02 01:00:00;;;;;;;;;;;;;;;8.66;81.11;95535.22;5093476;28;965;-53
2023/05/02 01:02:33;;;;;;;;;;;;;;;8.60;82.02;95528.63;5093512;28;1048;-53
2023/05/02 01:05:02;;;;;;;;;;;;;;;8.70;81.82;95527.78;5093295;28;1045;-53
2023/05/02 01:07:46;;;;;;;;;;;;;;;8.60;82.20;95517.97;5093617;28;978;-53
2023/05/02 01:10:22;;;;;;;;;;;;;;;8.68;82.04;95519.09;5093431;28;1914;-53
2023/05/02 01:13:02;;;;;;;;;;;;;;;8.60;82.22;95522.47;5093422;28;1056;-53
2023/05/02 01:15:29;;;;;;;;;;;;;;;8.58;82.76;95521.75;5093450;28;1051;-53
2023/05/02 01:17:56;;;;;;;;;;;;;;;8.65;82.46;95530.88;5093223;28;1057;-53
2023/05/02 01:20:24;;;;;;;;;;;;;;;8.72;82.10;95528.50;5092008;28;1242;-53
2023/05/02 01:22:51;;;;;;;;;;;;;;;8.68;81.72;95525.25;5093296;28;1013;-53
2023/05/02 01:25:32;;;;;;;;;;;;;;;8.69;81.42;95524.28;5092181;28;981;-53
2023/05/02 01:28:05;;;;;;;;;;;;;;;8.64;82.34;95529.19;5097047;28;1061;-53
2023/05/02 01:30:32;;;;;;;;;;;;;;;8.38;82.99;95531.53;5097276;28;1922;-53
2023/05/02 01:33:00;;;;;;;;;;;;;;;8.25;83.65;95530.94;5097274;28;981;-53
2023/05/02 01:35:28;;;;;;;;;;;;;;;8.22;84.02;95529.41;5097021;28;1506;-53
2023/05/02 01:37:56;;;;;;;;;;;;;;;8.12;84.06;95528.53;5096806;28;1056;-53
2023/05/02 01:40:24;;;;;;;;;;;;;;;8.01;85.24;95526.84;5096927;28;1100;-53
2023/05/02 01:42:52;;;;;;;;;;;;;;;8.09;85.04;95528.81;5096815;28;1033;-53
2023/05/02 01:45:20;;;;;;;;;;;;;;;8.17;85.41;95534.28;5097087;28;1056;-53
2023/05/02 01:47:47;;;;;;;;;;;;;;;8.24;84.98;95540.75;5096923;28;1060;-53
2023/05/02 01:50:16;;;;;;;;;;;;;;;8.28;85.30;95541.34;5096888;28;1995;-53
2023/05/02 01:52:43;;;;;;;;;;;;;;;8.23;85.72;95530.22;5096764;28;961;-53
2023/05/02 01:55:12;;;;;;;;;;;;;;;8.30;86.03;95534.88;5096648;28;1027;-53
2023/05/02 01:57:39;;;;;;;;;;;;;;;8.41;85.02;95531.25;5096809;28;961;-53
2023/05/02 02:00:08;;;;;;;;;;;;;;;8.53;84.24;95532.81;5096780;28;1008;-53
2023/05/02 02:02:34;;;;;;;;;;;;;;;8.56;83.46;95531.72;5096743;28;1040;-53
2023/05/02 02:05:02;;;;;;;;;;;;;;;8.52;82.74;95531.16;5096529;28;1040;-53
2023/05/02 02:07:29;;;;;;;;;;;;;;;8.43;83.15;95533.81;5096540;28;981;-53
2023/05/02 02:09:55;;;;;;;;;;;;;;;8.09;84.32;95528.81;5096147;28;1918;-53
2023/05/02 02:12:29;;;;;;;;;;;;;;;7.88;85.87;95535.06;5096574;28;1088;-53
2023/05/02 02:14:58;;;;;;;;;;;;;;;7.97;86.13;95542.25;5096450;28;1059;-53
2023/05/02 02:17:26;;;;;;;;;;;;;;;8.11;85.54;95532.19;5095253;28;961;-53
2023/05/02 02:19:55;;;;;;;;;;;;;;;8.33;85.38;95528.44;5096045;28;1157;-53
2023/05/02 02:22:22;;;;;;;;;;;;;;;8.24;84.40;95537.25;5095976;28;1035;-53
2023/05/02 02:24:49;;;;;;;;;;;;;;;8.00;84.03;95541.13;5095982;28;1053;-53
2023/05/02 02:27:15;;;;;;;;;;;;;;;8.07;84.03;95539.59;5096219;28;1059;-53
2023/05/02 02:29:42;;;;;;;;;;;;;;;8.20;84.11;95534.03;5095894;28;1981;-53
2023/05/02 02:32:08;;;;;;;;;;;;;;;8.29;84.03;95533.22;5096023;28;990;-53
2023/05/02 02:34:34;;;;;;;;;;;;;;;8.17;82.57;95534.28;5095920;28;1033;-52
2023/05/02 02:37:04;;;;;;;;;;;;;;;7.77;83.65;95529.84;5095698;28;1096;-53
2023/05/02 02:39:48;;;;;;;;;;;;;;;7.76;84.88;95530.81;5096343;28;1056;-53
2023/05/02 02:42:23;;;;;;;;;;;;;;;7.78;84.19;95526.22;5095894;28;973;-53
2023/05/02 02:44:55;;;;;;;;;;;;;;;7.73;85.63;95531.09;5095725;28;1068;-53
2023/05/02 02:47:30;;;;;;;;;;;;;;;7.84;85.13;95538.13;5095691;28;1013;-53
2023/05/02 02:49:56;;;;;;;;;;;;;;;8.01;85.62;95532.16;5095367;28;1993;-54
2023/05/02 02:52:36;;;;;;;;;;;;;;;7.97;84.09;95534.25;5095788;28;1048;-53
2023/05/02 02:55:11;;;;;;;;;;;;;;;7.78;83.96;95543.00;5095613;28;1012;-53
2023/05/02 02:57:52;;;;;;;;;;;;;;;7.79;84.62;95544.69;5095512;28;981;-53
2023/05/02 03:00:20;;;;;;;;;;;;;;;7.66;84.98;95545.91;5095459;28;1036;-53
2023/05/02 03:02:46;;;;;;;;;;;;;;;7.68;84.99;95543.94;5095344;28;988;-53
2023/05/02 03:05:13;;;;;;;;;;;;;;;7.81;85.21;95555.19;5095499;28;1063;-53
2023/05/02 03:07:39;;;;;;;;;;;;;;;7.86;84.69;95549.50;5095336;28;1036;-54
2023/05/02 03:10:05;;;;;;;;;;;;;;;7.84;85.02;95541.63;5095142;28;2254;-53
2023/05/02 03:12:31;;;;;;;;;;;;;;;7.85;84.37;95543.31;5095115;28;1037;-53
2023/05/02 03:15:23;;;;;;;;;;;;;;;7.84;84.34;95546.97;5095108;28;1037;-53
2023/05/02 03:17:48;;;;;;;;;;;;;;;7.84;84.62;95541.63;5095177;28;1028;-53
2023/05/02 03:20:15;;;;;;;;;;;;;;;7.85;84.33;95545.97;5094916;28;1092;-53
2023/05/02 03:22:41;;;;;;;;;;;;;;;7.82;83.63;95548.91;5094847;28;1058;-53
2023/05/02 03:25:07;;;;;;;;;;;;;;;7.69;83.95;95557.13;5094935;28;1051;-53
2023/05/02 03:27:33;;;;;;;;;;;;;;;7.45;84.96;95557.41;5095183;28;965;-53
2023/05/02 03:30:00;;;;;;;;;;;;;;;7.47;85.39;95555.47;5094946;28;2005;-53
2023/05/02 03:32:26;;;;;;;;;;;;;;;7.66;84.96;95553.88;5095017;28;1068;-53
2023/05/02 03:34:57;;;;;;;;;;;;;;;7.81;84.25;95557.88;5094823;28;962;-52
2023/05/02 03:37:23;;;;;;;;;;;;;;;7.80;84.29;95561.53;5094792;28;1068;-53
2023/05/02 03:39:49;;;;;;;;;;;;;;;7.71;83.64;95551.66;5094570;28;1043;-52
2023/05/02 03:42:15;;;;;;;;;;;;;;;7.71;84.03;95560.50;5094649;28;1056;-53
2023/05/02 03:44:41;;;;;;;;;;;;;;;7.84;83.70;95562.94;5094532;28;1096;-54
2023/05/02 03:47:08;;;;;;;;;;;;;;;8.00;83.28;95560.59;5094673;28;976;-53
2023/05/02 03:49:34;;;;;;;;;;;;;;;8.13;82.72;95562.19;5094097;28;1988;-54
2023/05/02 03:52:00;;;;;;;;;;;;;;;8.13;81.98;95571.00;5094517;28;988;-53
2023/05/02 03:54:26;;;;;;;;;;;;;;;8.28;82.14;95571.47;5094527;28;1036;-53
2023/05/02 03:56:54;;;;;;;;;;;;;;;8.43;82.33;95569.28;5094780;28;1028;-53
2023/05/02 03:59:20;;;;;;;;;;;;;;;8.50;82.04;95574.91;5094649;28;960;-53
2023/05/02 04:01:50;;;;;;;;;;;;;;;8.65;82.18;95573.53;5094638;28;1017;-53
2023/05/02 04:04:16;;;;;;;;;;;;;;;8.56;83.08;95580.53;5094491;28;1098;-54
2023/05/02 04:06:42;;;;;;;;;;;;;;;8.55;83.40;95576.16;5094384;28;1048;-53
2023/05/02 04:09:08;;;;;;;;;;;;;;;8.86;83.22;95577.88;5094258;28;1991;-53
2023/05/02 04:11:34;;;;;;;;;;;;;;;9.19;82.34;95582.78;5094460;28;1052;-53
2023/05/02 04:14:00;;;;;;;;;;;;;;;9.42;82.32;95587.81;5094434;28;1130;-52
2023/05/02 04:16:26;;;;;;;;;;;;;;;9.12;79.83;95597.66;5094344;28;1047;-52
2023/05/02 04:18:52;;;;;;;;;;;;;;;9.11;81.16;95588.00;5094049;28;1100;-52
2023/05/02 04:21:18;;;;;;;;;;;;;;;9.34;81.17;95585.03;5094136;28;1091;-52
2023/05/02 04:23:44;;;;;;;;;;;;;;;9.45;82.01;95590.19;5094067;28;1056;-52
2023/05/02 04:26:10;;;;;;;;;;;;;;;9.37;82.27;95596.25;5094247;28;1052;-52
2023/05/02 04:28:36;;;;;;;;;;;;;;;9.46;82.19;95589.19;5094217;28;954;-52
2023/05/02 04:31:02;;;;;;;;;;;;;;;9.71;81.25;95592.25;5093974;28;1991;-53
2023/05/02 04:33:29;;;;;;;;;;;;;;;9.84;81.89;95589.25;5094043;28;1048;-53
2023/05/02 04:35:55;;;;;;;;;;;;;;;9.94;81.25;95595.38;5093806;28;1587;-52
2023/05/02 04:38:21;;;;;;;;;;;;;;;9.99;81.46;95595.81;5093834;28;1028;-52
2023/05/02 04:40:49;;;;;;;;;;;;;;;9.99;82.53;95601.13;5094016;28;984;-53
2023/05/02 04:43:15;;;;;;;;;;;;;;;10.08;82.93;95600.28;5093817;28;1061;-53
2023/05/02 04:45:41;;;;;;;;;;;;;;;10.29;82.65;95599.19;5093696;28;1025;-53
2023/05/02 04:48:07;;;;;;;;;;;;;;;10.44;82.74;95603.09;5093687;28;1111;-53
2023/05/02 04:50:33;;;;;;;;;;;;;;;10.54;81.40;95598.50;5092429;28;1909;-53
2023/05/02 04:53:00;;;;;;;;;;;;;;;10.77;81.24;95602.59;5093695;28;1016;-52
2023/05/02 04:55:26;;;;;;;;;;;;;;;10.83;81.41;95607.34;5093848;28;1048;-53
2023/05/02 04:57:52;;;;;;;;;;;;;;;10.83;81.22;95604.66;5093807;28;1052;-53
2023/05/02 05:00:18;;;;;;;;;;;;;;;10.77;81.10;95594.56;5093724;28;968;-52
2023/05/02 05:02:44;;;;;;;;;;;;;;;10.96;81.50;95598.94;5097808;28;1045;-53
2023/05/02 05:05:10;;;;;;;;;;;;;;;11.10;80.75;95607.28;5097856;28;941;-53
2023/05/02 05:07:36;;;;;;;;;;;;;;;11.16;80.19;95605.00;5097706;28;957;-53
2023/05/02 05:10:02;;;;;;;;;;;;;;;11.32;80.62;95602.44;5097577;28;1910;-53
2023/05/02 05:12:28;;;;;;;;;;;;;;;11.51;78.93;95607.66;5096660;28;965;-52
2023/05/02 05:14:54;;;;;;;;;;;;;;;11.64;78.22;95599.19;5096537;28;970;-54
2023/05/02 05:17:21;;;;;;;;;;;;;;;11.95;77.17;95606.78;5097477;28;1033;-53
2023/05/02 05:19:47;;;;;;;;;;;;;;;12.10;76.76;95604.34;5097260;28;1223;-53
2023/05/02 05:22:14;;;;;;;;;;;;;;;12.21;76.49;95611.28;5097288;28;996;-53
2023/05/02 05:24:40;;;;;;;;;;;;;;;12.55;75.49;95602.38;5097645;28;1124;-53
2023/05/02 05:27:06;;;;;;;;;;;;;;;12.50;74.46;95600.16;5097485;28;1162;-53
2023/05/02 05:29:32;;;;;;;;;;;;;;;12.49;75.05;95604.69;5097301;28;1989;-53
2023/05/02 05:31:58;;;;;;;;;;;;;;;12.75;73.58;95608.28;5096030;28;1034;-54
2023/05/02 05:34:25;;;;;;;;;;;;;;;12.87;73.25;95609.69;5097220;28;1040;-54
2023/05/02 05:36:51;;;;;;;;;;;;;;;13.34;72.83;95606.44;5097054;28;988;-54
2023/05/02 05:39:17;;;;;;;;;;;;;;;13.43;71.74;95613.50;5097311;28;996;-54
2023/05/02 05:41:43;;;;;;;;;;;;;;;13.69;70.32;95609.78;5095844;28;1061;-54
2023/05/02 05:44:09;;;;;;;;;;;;;;;13.84;69.48;95612.63;5097149;28;1016;-52
2023/05/02 05:46:35;;;;;;;;;;;;;;;14.02;69.78;95607.06;5097017;28;977;-53
2023/05/02 05:49:01;;;;;;;;;;;;;;;14.16;68.06;95617.09;5096883;28;1988;-54
2023/05/02 05:51:27;;;;;;;;;;;;;;;14.04;68.28;95616.63;5096852;28;968;-54
2023/05/02 05:53:54;;;;;;;;;;;;;;;14.30;68.20;95617.41;5096754;28;976;-54
2023/05/02 05:56:21;;;;;;;;;;;;;;;14.44;65.65;95619.38;5096931;28;1036;-54
2023/05/02 05:58:47;;;;;;;;;;;;;;;14.30;66.87;95620.91;5096695;28;1951;-54
2023/05/02 06:01:14;;;;;;;;;;;;;;;14.64;66.65;95618.00;5096849;28;973;-54
2023/05/02 06:03:40;;;;;;;;;;;;;;;15.09;65.02;95607.47;5096444;28;1089;-53
2023/05/02 06:06:06;;;;;;;;;;;;;;;15.33;64.82;95617.25;5096589;28;1088;-54
2023/05/02 06:08:32;;;;;;;;;;;;;;;15.55;64.34;95617.41;5096858;28;954;-54
2023/05/02 06:10:58;;;;;;;;;;;;;;;15.90;63.24;95617.84;5096206;28;1918;-54
2023/05/02 06:13:24;;;;;;;;;;;;;;;16.03;63.90;95609.97;5096230;28;1064;-54
2023/05/02 06:15:50;;;;;;;;;;;;;;;15.86;62.51;95614.69;5096547;28;1144;-54
2023/05/02 06:18:17;;;;;;;;;;;;;;;16.09;63.32;95611.09;5096507;28;969;-54
2023/05/02 06:20:43;;;;;;;;;;;;;;;16.50;60.86;95616.03;5096199;28;1077;-54
2023/05/02 06:23:09;;;;;;;;;;;;;;;16.31;60.79;95614.72;5096165;28;1554;-54
2023/05/02 06:25:38;;;;;;;;;;;;;;;16.46;60.94;95622.81;5096492;28;1036;-54
2023/05/02 06:28:04;;;;;;;;;;;;;;;16.66;59.55;95610.44;5096332;28;1089;-54
2023/05/02 06:30:30;;;;;;;;;;;;;;;16.47;58.72;95609.16;5096230;28;1996;-54
2023/05/02 06:32:56;;;;;;;;;;;;;;;16.65;60.14;95607.94;5096107;28;1163;-54
2023/05/02 06:35:22;;;;;;;;;;;;;;;16.97;59.87;95615.63;5096060;28;973;-54
2023/05/02 06:37:48;;;;;;;;;;;;;;;17.35;56.49;95611.91;5096244;28;1036;-53
2023/05/02 06:40:14;;;;;;;;;;;;;;;17.41;57.59;95621.09;5096179;28;1059;-54
2023/05/02 06:42:40;;;;;;;;;;;;;;;17.37;57.66;95623.34;5095859;28;1074;-54
2023/05/02 06:45:07;;;;;;;;;;;;;;;17.50;55.89;95611.84;5095978;28;1108;-54
2023/05/02 06:47:33;;;;;;;;;;;;;;;17.53;56.53;95608.75;5095855;28;1050;-54
2023/05/02 06:49:59;;;;;;;;;;;;;;;17.99;57.85;95604.81;5095711;28;1988;-55
2023/05/02 06:52:25;;;;;;;;;;;;;;;18.52;55.25;95616.84;5095726;28;1116;-53
2023/05/02 06:54:51;;;;;;;;;;;;;;;18.71;54.68;95614.44;5095906;28;1037;-54
2023/05/02 06:57:17;;;;;;;;;;;;;;;18.54;55.18;95614.75;5095864;28;969;-54
2023/05/02 06:59:43;;;;;;;;;;;;;;;18.63;55.15;95611.88;5095646;28;1041;-54
2023/05/02 07:02:10;;;;;;;;;;;;;;;19.06;53.10;95617.13;5095680;28;1028;-56
2023/05/02 07:04:36;;;;;;;;;;;;;;;19.32;51.74;95613.66;5095549;28;1016;-56
2023/05/02 07:07:02;;;;;;;;;;;;;;;19.02;52.55;95613.97;5095395;28;1037;-57
2023/05/02 07:09:28;;;;;;;;;;;;;;;19.38;53.73;95607.41;5095325;28;1987;-57
2023/05/02 07:11:54;;;;;;;;;;;;;;;19.44;51.66;95608.47;5095455;28;969;-55
2023/05/02 07:14:20;;;;;;;;;;;;;;;19.61;51.24;95611.63;5095348;28;1191;-56
2023/05/02 07:16:47;;;;;;;;;;;;;;;19.65;52.31;95607.47;5094083;28;981;-56
2023/05/02 07:19:13;;;;;;;;;;;;;;;19.55;50.77;95621.44;5095032;28;1089;-56
2023/05/02 07:21:39;;;;;;;;;;;;;;;19.41;50.97;95615.16;5095172;28;1049;-55
2023/05/02 07:24:05;;;;;;;;;;;;;;;20.00;51.83;95612.75;5094204;28;1073;-56
2023/05/02 07:26:31;;;;;;;;;;;;;;;20.52;51.28;95618.34;5095288;28;1012;-56
2023/05/02 07:28:57;;;;;;;;;;;;;;;20.53;49.79;95618.13;5095077;28;1174;-56
2023/05/02 07:31:23;;;;;;;;;;;;;;;20.19;50.65;95611.91;5095001;28;2009;-56
2023/05/02 07:33:49;;;;;;;;;;;;;;;20.21;51.05;95606.28;5094998;28;985;-55
2023/05/02 07:36:16;;;;;;;;;;;;;;;19.70;51.60;95600.38;5094836;28;1053;-55
2023/05/02 07:38:43;;;;;;;;;;;;;;;19.12;52.81;95602.75;5095078;28;1301;-56
2023/05/02 07:41:09;;;;;;;;;;;;;;;19.29;52.60;95604.09;5094970;28;1119;-56
2023/05/02 07:43:35;;;;;;;;;;;;;;;18.88;54.12;95604.13;5094949;28;973;-56
2023/05/02 07:46:04;;;;;;;;;;;;;;;18.50;53.24;95599.97;5093634;28;1001;-55
2023/05/02 07:48:31;;;;;;;;;;;;;;;18.28;54.58;95599.19;5094668;28;957;-55
2023/05/02 07:51:04;;;;;;;;;;;;;;;18.27;54.06;95602.13;5094527;28;1995;-55
2023/05/02 07:53:30;;;;;;;;;;;;;;;18.23;54.61;95593.56;5094593;28;1291;-55
2023/05/02 07:55:57;;;;;;;;;;;;;;;18.09;54.71;95592.59;5094729;28;964;-55
2023/05/02 07:58:23;;;;;;;;;;;;;;;18.97;55.00;95593.94;5094591;28;973;-55
2023/05/02 08:00:49;;;;;;;;;;;;;;;19.70;50.82;95599.56;5093266;28;950;-55
2023/05/02 08:03:15;;;;;;;;;;;;;;;20.62;50.13;95591.59;5094338;28;1040;-55
2023/05/02 08:05:41;;;;;;;;;;;;;;;21.00;48.70;95593.56;5094605;28;1063;-55
2023/05/02 08:08:07;;;;;;;;;;;;;;;20.72;48.64;95586.56;5094540;28;1017;-55
2023/05/02 08:10:33;;;;;;;;;;;;;;;21.06;47.99;95584.56;5094366;28;1901;-55
2023/05/02 08:12:59;;;;;;;;;;;;;;;21.10;45.98;95587.69;5094256;28;981;-55
2023/05/02 08:15:25;;;;;;;;;;;;;;;21.38;46.37;95584.59;5094371;28;1112;-56
2023/05/02 08:17:51;;;;;;;;;;;;;;;21.89;45.59;95591.81;5094085;28;976;-56
2023/05/02 08:20:24;;;;;;;;;;;;;;;22.27;45.65;95588.19;5074246;28;1358;-56
2023/05/02 08:22:51;;;;;;;;;;;;;;;22.60;43.83;95585.13;5094265;28;1012;-55
2023/05/02 08:25:18;;;;;;;;;;;;;;;22.42;46.43;95583.22;5093946;28;1224;-56
2023/05/02 08:27:44;;;;;;;;;;;;;;;22.31;42.78;95581.22;5094103;28;1025;-56
2023/05/02 08:30:10;;;;;;;;;;;;;;;22.40;44.64;95582.63;5093897;28;1910;-57
2023/05/02 08:32:36;;;;;;;;;;;;;;;21.51;45.02;95572.81;5093849;28;1065;-57
2023/05/02 08:35:03;;;;;;;;;;;;;;;21.32;45.64;95574.59;5093945;28;1016;-56
2023/05/02 08:37:30;;;;;;;;;;;;;;;21.76;42.81;95565.53;5094008;28;1039;-56
2023/05/02 08:39:56;;;;;;;;;;;;;;;22.13;42.35;95572.97;5093940;28;1036;-56
2023/05/02 08:42:22;;;;;;;;;;;;;;;22.33;42.47;95556.47;5093755;28;1053;-56
2023/05/02 08:44:48;;;;;;;;;;;;;;;23.04;41.54;95565.97;5093720;28;1046;-54
2023/05/02 08:47:15;;;;;;;;;;;;;;;23.88;41.36;95557.88;5093702;28;977;-55
2023/05/02 08:49:41;;;;;;;;;;;;;;;24.11;38.72;95556.22;5093866;28;2006;-55
2023/05/02 08:52:08;;;;;;;;;;;;;;;24.13;37.77;95568.59;5093870;28;997;-54
2023/05/02 08:54:36;;;;;;;;;;;;;;;24.34;39.02;95567.19;5093577;28;1116;-54
2023/05/02 08:57:02;;;;;;;;;;;;;;;24.14;38.40;95542.94;5093732;28;1012;-55
2023/05/02 08:59:29;;;;;;;;;;;;;;;24.28;34.07;95564.56;5093592;28;1079;-54
2023/05/02 09:01:59;;;;;;;;;;;;;;;23.34;36.17;95557.00;5093547;28;1112;-55
2023/05/02 09:04:29;;;;;;;;;;;;;;;23.24;36.64;95559.41;5093608;28;1043;-55
2023/05/02 09:06:56;;;;;;;;;;;;;;;23.56;35.75;95547.22;5093534;28;1128;-55
2023/05/02 09:09:22;;;;;;;;;;;;;;;22.94;35.90;95543.84;5093347;28;1918;-55
2023/05/02 09:11:49;;;;;;;;;;;;;;;22.97;35.30;95559.75;5093435;28;1049;-55
2023/05/02 09:14:16;;;;;;;;;;;;;;;22.70;36.40;95553.78;5093406;28;1049;-55
2023/05/02 09:16:42;;;;;;;;;;;;;;;22.16;37.31;95531.69;5093672;28;1228;-56
2023/05/02 09:19:08;;;;;;;;;;;;;;;21.63;36.50;95550.13;5093639;28;972;-53
2023/05/02 09:21:42;;;;;;;;;;;;;;;21.26;37.84;95528.16;5093172;28;1112;-54
2023/05/02 09:24:15;;;;;;;;;;;;;;;21.34;38.68;95524.38;5093558;28;1083;-54
2023/05/02 09:26:42;;;;;;;;;;;;;;;21.90;36.56;95522.72;5093408;28;969;-54
2023/05/02 09:29:08;;;;;;;;;;;;;;;22.23;38.08;95527.00;5093228;28;1905;-54
2023/05/02 09:31:38;;;;;;;;;;;;;;;22.14;37.51;95531.06;5093300;28;1041;-54
2023/05/02 09:34:16;;;;;;;;;;;;;;;22.02;37.59;95514.63;5093331;28;897;-54
2023/05/02 09:36:43;;;;;;;;;;;;;;;22.20;37.46;95522.03;5093378;28;953;-54
2023/05/02 09:39:12;;;;;;;;;;;;;;;21.78;37.97;95514.44;5093209;28;1128;-54
2023/05/02 09:41:39;;;;;;;;;;;;;;;21.62;39.09;95504.09;5093174;28;1057;-54
2023/05/02 09:44:08;;;;;;;;;;;;;;;21.75;38.28;95506.72;5093432;28;965;-54
2023/05/02 09:46:41;;;;;;;;;;;;;;;21.82;38.79;95495.78;5093559;28;1046;-54
2023/05/02 09:49:09;;;;;;;;;;;;;;;21.33;38.99;95500.94;5097026;28;1991;-53
2023/05/02 09:51:36;;;;;;;;;;;;;;;21.16;38.64;95497.91;5096964;28;973;-54
2023/05/02 09:54:02;;;;;;;;;;;;;;;21.10;38.09;95506.94;5096825;28;1608;-54
2023/05/02 09:56:28;;;;;;;;;;;;;;;21.41;38.91;95497.13;5097101;28;1049;-54
2023/05/02 09:59:14;;;;;;;;;;;;;;;21.77;38.11;95499.16;5096794;28;1103;-54
2023/05/02 10:01:41;;;;;;;;;;;;;;;22.04;37.63;95501.63;5096741;28;1068;-53
2023/05/02 10:04:17;;;;;;;;;;;;;;;22.59;37.52;95500.88;5096824;28;1114;-54
2023/05/02 10:06:43;;;;;;;;;;;;;;;22.77;37.92;95498.13;5096647;28;1033;-54
2023/05/02 10:09:11;;;;;;;;;;;;;;;23.26;37.18;95503.59;5096808;28;1910;-55
2023/05/02 10:11:47;;;;;;;;;;;;;;;23.28;36.55;95497.91;5096619;28;1048;-58
2023/05/02 10:14:14;;;;;;;;;;;;;;;23.61;35.80;95504.75;5096610;28;969;-55
2023/05/02 10:16:46;;;;;;;;;;;;;;;23.76;35.04;95511.41;5096455;28;1025;-56
2023/05/02 10:19:18;;;;;;;;;;;;;;;23.52;35.20;95506.97;5096320;28;1136;-55
2023/05/02 10:21:45;;;;;;;;;;;;;;;23.10;35.00;95509.69;5095151;28;1357;-56
2023/05/02 10:24:12;;;;;;;;;;;;;;;22.61;36.16;95493.28;5096469;28;1020;-56
2023/05/02 10:26:38;;;;;;;;;;;;;;;22.68;36.06;95499.50;5093932;28;1514;-56
2023/05/02 10:29:04;;;;;;;;;;;;;;;22.74;37.19;95489.56;5095872;28;1112;-56
2023/05/02 10:31:34;;;;;;;;;;;;;;;22.86;35.91;95479.56;5096035;28;1969;-57
2023/05/02 10:34:01;;;;;;;;;;;;;;;23.01;35.96;95484.59;5096319;28;1041;-56
2023/05/02 10:36:28;;;;;;;;;;;;;;;22.48;37.06;95479.81;5095369;28;1043;-56
2023/05/02 10:38:54;;;;;;;;;;;;;;;22.31;36.23;95474.16;5096175;28;1028;-57
2023/05/02 10:41:23;;;;;;;;;;;;;;;22.16;36.96;95472.63;5095947;28;1069;-57
2023/05/02 10:43:49;;;;;;;;;;;;;;;21.87;36.98;95473.31;5095995;28;985;-57
2023/05/02 10:46:31;;;;;;;;;;;;;;;21.80;36.13;95471.50;5095835;28;1034;-56
2023/05/02 10:49:03;;;;;;;;;;;;;;;21.88;36.17;95470.38;5096041;28;1016;-54
2023/05/02 10:51:32;;;;;;;;;;;;;;;21.80;36.71;95466.06;5095881;28;1906;-54
2023/05/02 10:54:17;;;;;;;;;;;;;;;22.20;35.38;95475.72;5095810;28;1082;-55
2023/05/02 10:57:00;;;;;;;;;;;;;;;22.37;35.96;95463.19;5095727;28;1028;-55
2023/05/02 10:59:27;;;;;;;;;;;;;;;22.46;34.39;95461.00;5094584;28;966;-55
2023/05/02 11:01:53;;;;;;;;;;;;;;;22.77;35.98;95456.41;5095706;28;953;-55
2023/05/02 11:04:20;;;;;;;;;;;;;;;22.65;34.87;95460.97;5095482;28;1162;-55
2023/05/02 11:06:55;;;;;;;;;;;;;;;22.03;35.45;95461.88;5095487;28;978;-55
2023/05/02 11:09:21;;;;;;;;;;;;;;;22.51;36.21;95447.50;5095188;28;1918;-55
2023/05/02 11:11:49;;;;;;;;;;;;;;;23.09;33.79;95445.31;5095344;28;1076;-54
2023/05/02 11:14:24;;;;;;;;;;;;;;;23.11;33.60;95438.56;5095427;28;1059;-55
2023/05/02 11:16:56;;;;;;;;;;;;;;;22.94;34.13;95424.72;5095391;28;1072;-55
2023/05/02 11:19:23;;;;;;;;;;;;;;;22.88;32.90;95435.69;5095268;28;1008;-55
2023/05/02 11:21:49;;;;;;;;;;;;;;;22.58;34.29;95431.91;5094883;28;1115;-55
2023/05/02 11:24:34;;;;;;;;;;;;;;;22.51;33.93;95436.63;5095112;28;1072;-55
2023/05/02 11:27:19;;;;;;;;;;;;;;;22.63;32.83;95441.28;5095295;28;1032;-55
2023/05/02 11:30:12;;;;;;;;;;;;;;;22.73;32.01;95449.78;5093746;28;1906;-55
2023/05/02 11:32:44;;;;;;;;;;;;;;;22.45;32.38;95442.97;5091264;28;1248;-55
2023/05/02 11:35:18;;;;;;;;;;;;;;;22.45;32.35;95429.34;5094845;28;1100;-55
2023/05/02 11:37:54;;;;;;;;;;;;;;;22.51;32.28;95430.34;5094861;28;1088;-54
2023/05/02 11:40:21;;;;;;;;;;;;;;;22.61;32.05;95430.63;5094934;28;964;-54
2023/05/02 11:42:47;;;;;;;;;;;;;;;22.60;31.66;95428.97;5094711;28;1176;-56
2023/05/02 11:45:13;;;;;;;;;;;;;;;22.90;31.42;95412.63;5094974;28;989;-56
2023/05/02 11:47:40;;;;;;;;;;;;;;;22.96;31.57;95419.03;5094888;28;1048;-55
2023/05/02 11:50:10;;;;;;;;;;;;;;;22.87;31.62;95417.69;5094635;28;1910;-55
2023/05/02 11:52:41;;;;;;;;;;;;;;;22.73;30.83;95417.06;5094553;28;1120;-54
2023/05/02 11:55:12;;;;;;;;;;;;;;;22.45;31.58;95410.28;5094606;28;956;-54
2023/05/02 11:57:39;;;;;;;;;;;;;;;22.72;32.28;95399.84;5094713;28;969;-57
2023/05/02 12:00:10;;;;;;;;;;;;;;;22.66;31.65;95394.50;5094375;28;1111;-56
2023/05/02 12:02:36;;;;;;;;;;;;;;;22.59;32.18;95390.00;5094436;28;1878;-56
2023/05/02 12:05:04;;;;;;;;;;;;;;;22.80;31.57;95385.06;5094444;28;961;-56
2023/05/02 12:07:35;;;;;;;;;;;;;;;22.75;31.40;95388.50;5094322;28;1062;-52
2023/05/02 12:10:01;;;;;;;;;;;;;;;22.87;31.73;95385.81;5093797;28;1914;-57
2023/05/02 12:12:28;;;;;;;;;;;;;;;22.96;31.54;95389.03;5094523;28;989;-56
2023/05/02 12:14:53;;;;;;;;;;;;;;;22.59;30.89;95383.69;5093050;28;1045;-56
2023/05/02 12:17:20;;;;;;;;;;;;;;;22.37;31.31;95384.19;5094114;28;1305;-56
2023/05/02 12:19:47;;;;;;;;;;;;;;;22.02;29.86;95384.81;5093834;28;2040;-55
2023/05/02 12:22:14;;;;;;;;;;;;;;;22.15;29.90;95386.53;5093870;28;1080;-56
2023/05/02 12:24:40;;;;;;;;;;;;;;;22.07;30.70;95380.56;5093967;28;1016;-56
2023/05/02 12:27:15;;;;;;;;;;;;;;;22.02;29.84;95373.91;5094158;28;969;-56
2023/05/02 12:29:43;;;;;;;;;;;;;;;22.22;31.32;95375.56;5093790;28;1902;-56
2023/05/02 12:32:13;;;;;;;;;;;;;;;22.68;31.03;95360.50;5094012;28;937;-57
2023/05/02 12:34:39;;;;;;;;;;;;;;;22.54;30.46;95364.50;5093846;28;1029;-55
2023/05/02 12:37:06;;;;;;;;;;;;;;;22.35;30.15;95377.31;5093856;28;972;-55
2023/05/02 12:39:35;;;;;;;;;;;;;;;22.38;29.55;95366.78;5094047;28;1231;-56
2023/05/02 12:42:27;;;;;;;;;;;;;;;22.50;29.64;95357.81;5093949;28;1043;-57
2023/05/02 12:44:55;;;;;;;;;;;;;;;22.48;30.22;95363.53;5092018;28;1446;-58
2023/05/02 12:47:21;;;;;;;;;;;;;;;22.49;30.36;95357.00;5092603;28;1196;-55
2023/05/02 12:49:51;;;;;;;;;;;;;;;22.50;31.05;95358.69;5093509;28;1977;-55
2023/05/02 12:52:17;;;;;;;;;;;;;;;22.76;31.76;95357.44;5092460;28;1049;-57
2023/05/02 12:54:44;;;;;;;;;;;;;;;23.11;31.12;95353.19;5093633;28;1045;-58
2023/05/02 12:57:20;;;;;;;;;;;;;;;23.53;29.54;95362.09;5092410;28;1075;-57
2023/05/02 12:59:46;;;;;;;;;;;;;;;23.55;29.30;95357.25;5093614;28;1045;-57
2023/05/02 13:02:12;;;;;;;;;;;;;;;23.45;28.85;95364.34;5093549;28;1028;-57
2023/05/02 13:04:40;;;;;;;;;;;;;;;23.36;29.30;95358.44;5093713;28;1000;-56
2023/05/02 13:07:06;;;;;;;;;;;;;;;23.11;29.10;95351.28;5093672;28;962;-57